Royalist — MROR — position and weather

sailwx.info

Track history (hours):
 
Tides and Currents Weather Stations Pressure Air Temp Water Temp Dewpoint Dewpoint Depression Visibility Wind Speed Wind Dir Waves Ship Positions

Royalist

Last reported at 2015-Jan-21 10:32 UTC. Time now 2017-Apr-26 15:37 UTC.
Position N 51°06' E 003°44'.
Warning: this ship's position is years out of date!

Length 29 m.

Type: Sailing vessel. MMSI: 235004308.

Date/timePositionNaut miles runAvg speedWind from/ knotsBaromVisibWave heightAir tempDewpointWater temp
2015-Jan-21 10:32N 51°06' E 003°44'15 3.8
2015-Jan-21 06:29N 51°21' E 003°46'1 0.6
2015-Jan-21 04:13N 51°22' E 003°44'0 0.0
2015-Jan-21 01:22N 51°22' E 003°44'0 0.0
2015-Jan-21 00:04N 51°22' E 003°44'4 1.0
2015-Jan-20 20:11N 51°25' E 003°41'3 5.2
2015-Jan-20 19:33N 51°26' E 003°36'20 4.8
2015-Jan-20 15:22N 51°22' E 003°04'6 7.6
2015-Jan-20 14:33N 51°21' E 002°55'9 8.3
2015-Jan-20 13:27N 51°19' E 002°40'8 8.5
2015-Jan-20 12:33N 51°15' E 002°30'77 5.9
2015-Jan-19 23:33N 50°47' E 000°36'6 6.4
2015-Jan-19 22:33N 50°44' E 000°27'7 6.6
2015-Jan-19 21:33N 50°42' E 000°17'34 8.2
2015-Jan-19 17:24N 50°41' W 000°37'7 8.2
2015-Jan-19 16:33N 50°42' W 000°48'14 7.0
2015-Jan-19 14:34N 50°48' W 001°07'0 0.2
2015-Jan-19 13:29N 50°48' W 001°07'1 1.2
2015-Jan-19 12:32N 50°47' W 001°07'0 0.0
2015-Jan-19 11:32N 50°47' W 001°07'0 0.0
2015-Jan-19 10:26N 50°47' W 001°07'0 0.0
2015-Jan-19 09:26N 50°47' W 001°07'0 0.0
2015-Jan-19 08:14N 50°47' W 001°07'0 0.0
2015-Jan-19 07:32N 50°47' W 001°07'0 0.0
2015-Jan-19 05:26N 50°47' W 001°07'0 0.0
2015-Jan-19 04:26N 50°47' W 001°07'0 0.0
2015-Jan-19 02:08N 50°47' W 001°07'0 0.0
2015-Jan-19 01:29N 50°47' W 001°07'0 0.0
2015-Jan-19 00:32N 50°47' W 001°07'0 0.0
2015-Jan-18 22:14N 50°47' W 001°07'0 0.0
2015-Jan-18 21:26N 50°47' W 001°07'0 0.0
2015-Jan-18 20:26N 50°47' W 001°07'0 0.0
2015-Jan-18 19:32N 50°47' W 001°07'0 0.0
2015-Jan-18 18:11N 50°47' W 001°07'0 0.0
2015-Jan-18 10:05N 50°47' W 001°07'0 0.0
2015-Jan-18 08:26N 50°47' W 001°07'0 0.0
2015-Jan-18 07:32N 50°47' W 001°07'0 0.0
2015-Jan-18 06:32N 50°47' W 001°07'0 0.0
2015-Jan-18 05:32N 50°47' W 001°07'0 0.0
2015-Jan-18 04:32N 50°47' W 001°07'0 0.0
2015-Jan-18 03:32N 50°47' W 001°07'0 0.0
2015-Jan-18 02:20N 50°47' W 001°07'0 0.0
2015-Jan-18 01:29N 50°47' W 001°07'0 0.0
2015-Jan-18 00:32N 50°47' W 001°07'0 0.0
2015-Jan-17 23:32N 50°47' W 001°07'0 0.0
2015-Jan-17 22:29N 50°47' W 001°07'0 0.0
2015-Jan-17 21:32N 50°47' W 001°07'0 0.0
2015-Jan-17 20:32N 50°47' W 001°07'0 0.0
2015-Jan-17 19:32N 50°47' W 001°07'0 0.0
2015-Jan-17 18:29N 50°47' W 001°07'0 0.0
2015-Jan-17 17:26N 50°47' W 001°07'0 0.0
2015-Jan-17 16:32N 50°47' W 001°07'0 0.0
2015-Jan-17 15:32N 50°47' W 001°07'0 0.0
2015-Jan-17 14:32N 50°47' W 001°07'0 0.0
2015-Jan-17 13:14N 50°47' W 001°07'0 0.0
2015-Jan-17 12:29N 50°47' W 001°07'0 0.0
2015-Jan-17 11:11N 50°47' W 001°07'0 0.0
2015-Jan-17 10:32N 50°47' W 001°07'0 0.0
2015-Jan-17 09:14N 50°47' W 001°07'0 0.0
2015-Jan-17 08:32N 50°47' W 001°07'0 0.0
2015-Jan-17 07:32N 50°47' W 001°07'0 0.0
2015-Jan-17 06:32N 50°47' W 001°07'0 0.0
2015-Jan-17 05:32N 50°47' W 001°07'0 0.0
2015-Jan-17 04:32N 50°47' W 001°07'0 0.0
2015-Jan-17 03:32N 50°47' W 001°07'0 0.0
2015-Jan-17 02:32N 50°47' W 001°07'0 0.0
2015-Jan-17 01:32N 50°47' W 001°07'0 0.0
2015-Jan-17 00:32N 50°47' W 001°07'0 0.0
2015-Jan-16 23:29N 50°47' W 001°07'0 0.0
2015-Jan-16 21:23N 50°47' W 001°07'0 0.0
2015-Jan-16 17:29N 50°47' W 001°07'0 0.0
2015-Jan-16 16:32N 50°47' W 001°07'0 0.0
2015-Jan-16 14:32N 50°47' W 001°07'0 0.0
2015-Jan-16 13:08N 50°47' W 001°07'0 0.0
2015-Jan-16 12:26N 50°47' W 001°07'0 0.0
2015-Jan-16 11:26N 50°47' W 001°07'0 0.0
2015-Jan-16 10:29N 50°47' W 001°07'0 0.0
2015-Jan-16 09:32N 50°47' W 001°07'0 0.0
2015-Jan-16 08:17N 50°47' W 001°07'0 0.0
2015-Jan-16 07:26N 50°47' W 001°07'0 0.0
2015-Jan-16 06:32N 50°47' W 001°07'0 0.0
2015-Jan-16 04:15N 50°47' W 001°07'0 0.0
2015-Jan-16 03:29N 50°47' W 001°07'0 0.0
2015-Jan-16 02:23N 50°47' W 001°07'0 0.0
2015-Jan-16 01:33N 50°47' W 001°07'0 0.0
2015-Jan-16 00:15N 50°47' W 001°07'0 0.0
2015-Jan-15 23:33N 50°47' W 001°07'0 0.0
2015-Jan-15 22:33N 50°47' W 001°07'0 0.0
2015-Jan-15 21:33N 50°47' W 001°07'0 0.0
2015-Jan-15 20:33N 50°47' W 001°07'0 0.0
2015-Jan-15 19:33N 50°47' W 001°07'0 0.0
2015-Jan-15 18:21N 50°47' W 001°07'0 0.0
2015-Jan-15 17:30N 50°47' W 001°07'0 0.0
2015-Jan-15 16:33N 50°47' W 001°07'0 0.0
2015-Jan-15 15:33N 50°47' W 001°07'0 0.0
2015-Jan-15 14:33N 50°47' W 001°07'0 0.0
2015-Jan-15 13:27N 50°47' W 001°07'0 0.0
2015-Jan-15 12:33N 50°47' W 001°07'0 0.0
2015-Jan-15 11:33N 50°47' W 001°07'0 0.0
2015-Jan-15 10:33N 50°47' W 001°07'0 0.0
2015-Jan-15 09:33N 50°47' W 001°07'0 0.0
2015-Jan-15 08:33N 50°47' W 001°07'0 0.0
2015-Jan-15 07:33N 50°47' W 001°07'0 0.0
2015-Jan-15 06:33N 50°47' W 001°07'0 0.0
2015-Jan-15 05:33N 50°47' W 001°07'0 0.0
2015-Jan-15 04:33N 50°47' W 001°07'0 0.0
2015-Jan-15 03:30N 50°47' W 001°07'0 0.0
2015-Jan-15 02:33N 50°47' W 001°07'0 0.0
2015-Jan-15 01:33N 50°47' W 001°07'0 0.0
2015-Jan-15 00:27N 50°47' W 001°07'0 0.0
2015-Jan-14 23:30N 50°47' W 001°07'0 0.0
2015-Jan-14 22:21N 50°47' W 001°07'0 0.0
2015-Jan-14 21:30N 50°47' W 001°07'0 0.0
2015-Jan-14 20:33N 50°47' W 001°07'0 0.0
2015-Jan-14 19:30N 50°47' W 001°07'0 0.0
2015-Jan-14 18:27N 50°47' W 001°07'0 0.0
2015-Jan-14 17:33N 50°47' W 001°07'0 0.0
2015-Jan-14 16:30N 50°47' W 001°07'0 0.0
2015-Jan-14 15:33N 50°47' W 001°07'0 0.0
2015-Jan-14 14:33N 50°47' W 001°07'0 0.0
2015-Jan-14 13:33N 50°47' W 001°07'0 0.0
2015-Jan-14 12:33N 50°47' W 001°07'0 0.0
2015-Jan-14 11:18N 50°47' W 001°07'0 0.0
2015-Jan-14 10:24N 50°47' W 001°07'0 0.0
2015-Jan-14 04:33N 50°47' W 001°07'0 0.0
2015-Jan-14 03:33N 50°47' W 001°07'0 0.0
2015-Jan-14 02:33N 50°47' W 001°07'0 0.0
2015-Jan-14 01:24N 50°47' W 001°07'0 0.0
2015-Jan-13 23:33N 50°47' W 001°07'0 0.0
2015-Jan-13 22:33N 50°47' W 001°07'0 0.0
2015-Jan-13 21:33N 50°47' W 001°07'0 0.0
2015-Jan-13 20:33N 50°47' W 001°07'0 0.0
2015-Jan-13 17:33N 50°47' W 001°07'0 0.0
2015-Jan-13 16:27N 50°47' W 001°07'0 0.0
2015-Jan-13 15:21N 50°47' W 001°07'0 0.0
2015-Jan-13 14:30N 50°47' W 001°07'0 0.0
2015-Jan-13 13:30N 50°47' W 001°07'0 0.0
2015-Jan-13 12:21N 50°47' W 001°07'0 0.0
2015-Jan-13 11:33N 50°47' W 001°07'0 0.0
2015-Jan-13 10:33N 50°47' W 001°07'0 0.0
2015-Jan-13 09:33N 50°47' W 001°07'0 0.0
2015-Jan-13 08:30N 50°47' W 001°07'0 0.0
2015-Jan-13 07:09N 50°47' W 001°07'0 0.0
2015-Jan-13 06:33N 50°47' W 001°07'0 0.0
2015-Jan-13 05:33N 50°47' W 001°07'0 0.0
2015-Jan-13 04:24N 50°47' W 001°07'0 0.0
2015-Jan-13 03:30N 50°47' W 001°07'0 0.0
2015-Jan-13 02:33N 50°47' W 001°07'0 0.0
2015-Jan-13 01:33N 50°47' W 001°07'0 0.0
2015-Jan-13 00:30N 50°47' W 001°07'0 0.0
2015-Jan-12 23:33N 50°47' W 001°07'0 0.0
2015-Jan-12 22:33N 50°47' W 001°07'0 0.0
2015-Jan-12 21:30N 50°47' W 001°07'0 0.0
2015-Jan-12 20:33N 50°47' W 001°07'0 0.0
2015-Jan-12 18:30N 50°47' W 001°07'0 0.0
2015-Jan-12 17:15N 50°47' W 001°07'0 0.0
2015-Jan-12 16:33N 50°47' W 001°07'0 0.0
2015-Jan-12 15:30N 50°47' W 001°07'0 0.0
2015-Jan-12 14:33N 50°47' W 001°07'0 0.0
2015-Jan-12 13:33N 50°47' W 001°07'0 0.0
2015-Jan-12 12:33N 50°47' W 001°07'0 0.0
2015-Jan-12 11:33N 50°47' W 001°07'0 0.0
2015-Jan-12 10:33N 50°47' W 001°07'0 0.0
2015-Jan-12 09:21N 50°47' W 001°07'0 0.0
2015-Jan-12 08:30N 50°47' W 001°07'0 0.0
2015-Jan-12 07:33N 50°47' W 001°07'0 0.0
2015-Jan-12 06:33N 50°47' W 001°07'0 0.0
2015-Jan-12 05:33N 50°47' W 001°07'0 0.0
2015-Jan-12 04:33N 50°47' W 001°07'0 0.0
2015-Jan-12 03:33N 50°47' W 001°07'0 0.0
2015-Jan-12 02:30N 50°47' W 001°07'0 0.0
2015-Jan-12 01:33N 50°47' W 001°07'0 0.0
2015-Jan-12 00:27N 50°47' W 001°07'0 0.0
2015-Jan-11 23:33N 50°47' W 001°07'0 0.0
2015-Jan-11 22:30N 50°47' W 001°07'0 0.0
2015-Jan-11 21:33N 50°47' W 001°07'0 0.0
2015-Jan-11 17:24N 50°47' W 001°07'0 0.0
2015-Jan-11 14:33N 50°47' W 001°07'0 0.0
2015-Jan-11 13:30N 50°47' W 001°07'0 0.0
2015-Jan-11 12:33N 50°47' W 001°07'0 0.0
2015-Jan-11 11:24N 50°47' W 001°07'  
Track history (hours):
 
Tides and Currents Weather Stations Pressure Air Temp Water Temp Dewpoint Dewpoint Depression Visibility Wind Speed Wind Dir Waves Ship Positions

Royalist

Last reported at 2015-Jan-21 10:32 UTC. Time now 2017-Apr-26 15:37 UTC.
Position N 51°06' E 003°44'.
Warning: this ship's position is years out of date!

Length 29 m.

Type: Sailing vessel. MMSI: 235004308.

Date/timePositionNaut miles runAvg speedWind from/ knotsBaromVisibWave heightAir tempDewpointWater temp
2015-Jan-21 10:32N 51°06' E 003°44'15 3.8
2015-Jan-21 06:29N 51°21' E 003°46'1 0.6
2015-Jan-21 04:13N 51°22' E 003°44'0 0.0
2015-Jan-21 01:22N 51°22' E 003°44'0 0.0
2015-Jan-21 00:04N 51°22' E 003°44'4 1.0
2015-Jan-20 20:11N 51°25' E 003°41'3 5.2
2015-Jan-20 19:33N 51°26' E 003°36'20 4.8
2015-Jan-20 15:22N 51°22' E 003°04'6 7.6
2015-Jan-20 14:33N 51°21' E 002°55'9 8.3
2015-Jan-20 13:27N 51°19' E 002°40'8 8.5
2015-Jan-20 12:33N 51°15' E 002°30'77 5.9
2015-Jan-19 23:33N 50°47' E 000°36'6 6.4
2015-Jan-19 22:33N 50°44' E 000°27'7 6.6
2015-Jan-19 21:33N 50°42' E 000°17'34 8.2
2015-Jan-19 17:24N 50°41' W 000°37'7 8.2
2015-Jan-19 16:33N 50°42' W 000°48'14 7.0
2015-Jan-19 14:34N 50°48' W 001°07'0 0.2
2015-Jan-19 13:29N 50°48' W 001°07'1 1.2
2015-Jan-19 12:32N 50°47' W 001°07'0 0.0
2015-Jan-19 11:32N 50°47' W 001°07'0 0.0
2015-Jan-19 10:26N 50°47' W 001°07'0 0.0
2015-Jan-19 09:26N 50°47' W 001°07'0 0.0
2015-Jan-19 08:14N 50°47' W 001°07'0 0.0
2015-Jan-19 07:32N 50°47' W 001°07'0 0.0
2015-Jan-19 05:26N 50°47' W 001°07'0 0.0
2015-Jan-19 04:26N 50°47' W 001°07'0 0.0
2015-Jan-19 02:08N 50°47' W 001°07'0 0.0
2015-Jan-19 01:29N 50°47' W 001°07'0 0.0
2015-Jan-19 00:32N 50°47' W 001°07'0 0.0
2015-Jan-18 22:14N 50°47' W 001°07'0 0.0
2015-Jan-18 21:26N 50°47' W 001°07'0 0.0
2015-Jan-18 20:26N 50°47' W 001°07'0 0.0
2015-Jan-18 19:32N 50°47' W 001°07'0 0.0
2015-Jan-18 18:11N 50°47' W 001°07'0 0.0
2015-Jan-18 10:05N 50°47' W 001°07'0 0.0
2015-Jan-18 08:26N 50°47' W 001°07'0 0.0
2015-Jan-18 07:32N 50°47' W 001°07'0 0.0
2015-Jan-18 06:32N 50°47' W 001°07'0 0.0
2015-Jan-18 05:32N 50°47' W 001°07'0 0.0
2015-Jan-18 04:32N 50°47' W 001°07'0 0.0
2015-Jan-18 03:32N 50°47' W 001°07'0 0.0
2015-Jan-18 02:20N 50°47' W 001°07'0 0.0
2015-Jan-18 01:29N 50°47' W 001°07'0 0.0
2015-Jan-18 00:32N 50°47' W 001°07'0 0.0
2015-Jan-17 23:32N 50°47' W 001°07'0 0.0
2015-Jan-17 22:29N 50°47' W 001°07'0 0.0
2015-Jan-17 21:32N 50°47' W 001°07'0 0.0
2015-Jan-17 20:32N 50°47' W 001°07'0 0.0
2015-Jan-17 19:32N 50°47' W 001°07'0 0.0
2015-Jan-17 18:29N 50°47' W 001°07'0 0.0
2015-Jan-17 17:26N 50°47' W 001°07'0 0.0
2015-Jan-17 16:32N 50°47' W 001°07'0 0.0
2015-Jan-17 15:32N 50°47' W 001°07'0 0.0
2015-Jan-17 14:32N 50°47' W 001°07'0 0.0
2015-Jan-17 13:14N 50°47' W 001°07'0 0.0
2015-Jan-17 12:29N 50°47' W 001°07'0 0.0
2015-Jan-17 11:11N 50°47' W 001°07'0 0.0
2015-Jan-17 10:32N 50°47' W 001°07'0 0.0
2015-Jan-17 09:14N 50°47' W 001°07'0 0.0
2015-Jan-17 08:32N 50°47' W 001°07'0 0.0
2015-Jan-17 07:32N 50°47' W 001°07'0 0.0
2015-Jan-17 06:32N 50°47' W 001°07'0 0.0
2015-Jan-17 05:32N 50°47' W 001°07'0 0.0
2015-Jan-17 04:32N 50°47' W 001°07'0 0.0
2015-Jan-17 03:32N 50°47' W 001°07'0 0.0
2015-Jan-17 02:32N 50°47' W 001°07'0 0.0
2015-Jan-17 01:32N 50°47' W 001°07'0 0.0
2015-Jan-17 00:32N 50°47' W 001°07'0 0.0
2015-Jan-16 23:29N 50°47' W 001°07'0 0.0
2015-Jan-16 21:23N 50°47' W 001°07'0 0.0
2015-Jan-16 17:29N 50°47' W 001°07'0 0.0
2015-Jan-16 16:32N 50°47' W 001°07'0 0.0
2015-Jan-16 14:32N 50°47' W 001°07'0 0.0
2015-Jan-16 13:08N 50°47' W 001°07'0 0.0
2015-Jan-16 12:26N 50°47' W 001°07'0 0.0
2015-Jan-16 11:26N 50°47' W 001°07'0 0.0
2015-Jan-16 10:29N 50°47' W 001°07'0 0.0
2015-Jan-16 09:32N 50°47' W 001°07'0 0.0
2015-Jan-16 08:17N 50°47' W 001°07'0 0.0
2015-Jan-16 07:26N 50°47' W 001°07'0 0.0
2015-Jan-16 06:32N 50°47' W 001°07'0 0.0
2015-Jan-16 04:15N 50°47' W 001°07'0 0.0
2015-Jan-16 03:29N 50°47' W 001°07'0 0.0
2015-Jan-16 02:23N 50°47' W 001°07'0 0.0
2015-Jan-16 01:33N 50°47' W 001°07'0 0.0
2015-Jan-16 00:15N 50°47' W 001°07'0 0.0
2015-Jan-15 23:33N 50°47' W 001°07'0 0.0
2015-Jan-15 22:33N 50°47' W 001°07'0 0.0
2015-Jan-15 21:33N 50°47' W 001°07'0 0.0
2015-Jan-15 20:33N 50°47' W 001°07'0 0.0
2015-Jan-15 19:33N 50°47' W 001°07'0 0.0
2015-Jan-15 18:21N 50°47' W 001°07'0 0.0
2015-Jan-15 17:30N 50°47' W 001°07'0 0.0
2015-Jan-15 16:33N 50°47' W 001°07'0 0.0
2015-Jan-15 15:33N 50°47' W 001°07'0 0.0
2015-Jan-15 14:33N 50°47' W 001°07'0 0.0
2015-Jan-15 13:27N 50°47' W 001°07'0 0.0
2015-Jan-15 12:33N 50°47' W 001°07'0 0.0
2015-Jan-15 11:33N 50°47' W 001°07'0 0.0
2015-Jan-15 10:33N 50°47' W 001°07'0 0.0
2015-Jan-15 09:33N 50°47' W 001°07'0 0.0
2015-Jan-15 08:33N 50°47' W 001°07'0 0.0
2015-Jan-15 07:33N 50°47' W 001°07'0 0.0
2015-Jan-15 06:33N 50°47' W 001°07'0 0.0
2015-Jan-15 05:33N 50°47' W 001°07'0 0.0
2015-Jan-15 04:33N 50°47' W 001°07'0 0.0
2015-Jan-15 03:30N 50°47' W 001°07'0 0.0
2015-Jan-15 02:33N 50°47' W 001°07'0 0.0
2015-Jan-15 01:33N 50°47' W 001°07'0 0.0
2015-Jan-15 00:27N 50°47' W 001°07'0 0.0
2015-Jan-14 23:30N 50°47' W 001°07'0 0.0
2015-Jan-14 22:21N 50°47' W 001°07'0 0.0
2015-Jan-14 21:30N 50°47' W 001°07'0 0.0
2015-Jan-14 20:33N 50°47' W 001°07'0 0.0
2015-Jan-14 19:30N 50°47' W 001°07'0 0.0
2015-Jan-14 18:27N 50°47' W 001°07'0 0.0
2015-Jan-14 17:33N 50°47' W 001°07'0 0.0
2015-Jan-14 16:30N 50°47' W 001°07'0 0.0
2015-Jan-14 15:33N 50°47' W 001°07'0 0.0
2015-Jan-14 14:33N 50°47' W 001°07'0 0.0
2015-Jan-14 13:33N 50°47' W 001°07'0 0.0
2015-Jan-14 12:33N 50°47' W 001°07'0 0.0
2015-Jan-14 11:18N 50°47' W 001°07'0 0.0
2015-Jan-14 10:24N 50°47' W 001°07'0 0.0
2015-Jan-14 04:33N 50°47' W 001°07'0 0.0
2015-Jan-14 03:33N 50°47' W 001°07'0 0.0
2015-Jan-14 02:33N 50°47' W 001°07'0 0.0
2015-Jan-14 01:24N 50°47' W 001°07'0 0.0
2015-Jan-13 23:33N 50°47' W 001°07'0 0.0
2015-Jan-13 22:33N 50°47' W 001°07'0 0.0
2015-Jan-13 21:33N 50°47' W 001°07'0 0.0
2015-Jan-13 20:33N 50°47' W 001°07'0 0.0
2015-Jan-13 17:33N 50°47' W 001°07'0 0.0
2015-Jan-13 16:27N 50°47' W 001°07'0 0.0
2015-Jan-13 15:21N 50°47' W 001°07'0 0.0
2015-Jan-13 14:30N 50°47' W 001°07'0 0.0
2015-Jan-13 13:30N 50°47' W 001°07'0 0.0
2015-Jan-13 12:21N 50°47' W 001°07'0 0.0
2015-Jan-13 11:33N 50°47' W 001°07'0 0.0
2015-Jan-13 10:33N 50°47' W 001°07'0 0.0
2015-Jan-13 09:33N 50°47' W 001°07'0 0.0
2015-Jan-13 08:30N 50°47' W 001°07'0 0.0
2015-Jan-13 07:09N 50°47' W 001°07'0 0.0
2015-Jan-13 06:33N 50°47' W 001°07'0 0.0
2015-Jan-13 05:33N 50°47' W 001°07'0 0.0
2015-Jan-13 04:24N 50°47' W 001°07'0 0.0
2015-Jan-13 03:30N 50°47' W 001°07'0 0.0
2015-Jan-13 02:33N 50°47' W 001°07'0 0.0
2015-Jan-13 01:33N 50°47' W 001°07'0 0.0
2015-Jan-13 00:30N 50°47' W 001°07'0 0.0
2015-Jan-12 23:33N 50°47' W 001°07'0 0.0
2015-Jan-12 22:33N 50°47' W 001°07'0 0.0
2015-Jan-12 21:30N 50°47' W 001°07'0 0.0
2015-Jan-12 20:33N 50°47' W 001°07'0 0.0
2015-Jan-12 18:30N 50°47' W 001°07'0 0.0
2015-Jan-12 17:15N 50°47' W 001°07'0 0.0
2015-Jan-12 16:33N 50°47' W 001°07'0 0.0
2015-Jan-12 15:30N 50°47' W 001°07'0 0.0
2015-Jan-12 14:33N 50°47' W 001°07'0 0.0
2015-Jan-12 13:33N 50°47' W 001°07'0 0.0
2015-Jan-12 12:33N 50°47' W 001°07'0 0.0
2015-Jan-12 11:33N 50°47' W 001°07'0 0.0
2015-Jan-12 10:33N 50°47' W 001°07'0 0.0
2015-Jan-12 09:21N 50°47' W 001°07'0 0.0
2015-Jan-12 08:30N 50°47' W 001°07'0 0.0
2015-Jan-12 07:33N 50°47' W 001°07'0 0.0
2015-Jan-12 06:33N 50°47' W 001°07'0 0.0
2015-Jan-12 05:33N 50°47' W 001°07'0 0.0
2015-Jan-12 04:33N 50°47' W 001°07'0 0.0
2015-Jan-12 03:33N 50°47' W 001°07'0 0.0
2015-Jan-12 02:30N 50°47' W 001°07'0 0.0
2015-Jan-12 01:33N 50°47' W 001°07'0 0.0
2015-Jan-12 00:27N 50°47' W 001°07'0 0.0
2015-Jan-11 23:33N 50°47' W 001°07'0 0.0
2015-Jan-11 22:30N 50°47' W 001°07'0 0.0
2015-Jan-11 21:33N 50°47' W 001°07'0 0.0
2015-Jan-11 17:24N 50°47' W 001°07'0 0.0
2015-Jan-11 14:33N 50°47' W 001°07'0 0.0
2015-Jan-11 13:30N 50°47' W 001°07'0 0.0
2015-Jan-11 12:33N 50°47' W 001°07'0 0.0
2015-Jan-11 11:24N 50°47' W 001°07'  

Dump ship's entire track history